Terminal Aerodrome Forecast
Issued by NWS

Home | Current Version | Previous Version | Text Only | Print | Product List | Glossary On
Versions: 1 2 3 4 5 6 7 8 9 10 11 12 13 14 15 16 17
972
FTPA31 PHFO 081136
TAFHKO
TAF
PHKO 081136Z 0812/0912 02017G24KT P6SM FEW050
     FM082200 29010KT P6SM FEW050
     FM090300 23008KT P6SM SCT050
     FM090700 06005KT P6SM FEW050
      AMD NOT SKED=

USA.gov is the U.S. government's official web portal to all federal, state and local government web resources and services.